Pioneer Knutsen — LMIK — position and weather

sailwx.info

Track history (hours):
 
Tides and Currents Weather Stations Pressure Air Temp Water Temp Dewpoint Dewpoint Depression Visibility Wind Speed Wind Dir Waves Ship Positions

Pioneer Knutsen

Last reported at 2017-Feb-25 00:33 UTC. Time now 2017-Feb-25 00:41 UTC.
Position N 64°38' E 010°43'.

Length 70 m; draft 3.6 m.

Type: Ship. MMSI: 259393000.

Date/timePositionNaut miles runAvg speedWind from/ knotsBaromVisibWave heightAir tempDewpointWater temp
2017-Feb-25 00:33N 64°38' E 010°43'1211.6
2017-Feb-24 23:33N 64°28' E 010°26'1010.1
2017-Feb-24 22:33N 64°18' E 010°23'1111.4
2017-Feb-24 21:33N 64°09' E 010°07'1111.3
2017-Feb-24 20:33N 64°02' E 009°47'9 9.3
2017-Feb-24 19:32N 63°53' E 009°44'4 4.5
2017-Feb-24 18:33N 63°49' E 009°38'0 0.0
2017-Feb-24 17:33N 63°49' E 009°38'0 0.0
2017-Feb-24 16:32N 63°49' E 009°38'0 0.0
2017-Feb-24 15:33N 63°49' E 009°38'10 9.7
2017-Feb-24 14:33N 63°40' E 009°29'10 9.8
2017-Feb-24 13:33N 63°33' E 009°16'1211.6
2017-Feb-24 12:33N 63°27' E 008°52'1212.0
2017-Feb-24 11:33N 63°23' E 008°28'1211.6
2017-Feb-24 10:33N 63°16' E 008°07'1211.6
2017-Feb-24 09:33N 63°10' E 007°45'1211.5
2017-Feb-24 08:33N 63°04' E 007°23'1110.5
2017-Feb-24 07:33N 63°00' E 007°01'9 9.2
2017-Feb-24 06:33N 62°54' E 006°46'1010.3
2017-Feb-24 05:33N 62°46' E 006°33'1212.0
2017-Feb-24 04:33N 62°36' E 006°17'1211.5
2017-Feb-24 03:33N 62°27' E 006°03'1010.0
2017-Feb-24 02:32N 62°17' E 005°59'1211.9
2017-Feb-24 01:33N 62°11' E 005°38'1010.1
2017-Feb-24 00:33N 62°13' E 005°16'7 7.3
2017-Feb-23 23:33N 62°09' E 005°02'1111.4
2017-Feb-23 22:33N 61°58' E 005°09'9 9.3
2017-Feb-23 21:33N 61°50' E 005°15'1211.4
2017-Feb-23 20:33N 61°42' E 004°58'1211.5
2017-Feb-23 19:33N 61°30' E 004°60'1111.5
2017-Feb-23 18:33N 61°19' E 005°04'9 8.6
2017-Feb-23 17:34N 61°11' E 005°01'1110.9
2017-Feb-23 16:33N 61°01' E 004°51'1111.4
2017-Feb-23 15:33N 60°50' E 004°45'1212.2
2017-Feb-23 14:33N 60°38' E 004°53'5 5.1
2017-Feb-23 13:31N 60°33' E 004°53'0 0.0
2017-Feb-23 12:28N 60°33' E 004°53'0 0.0
2017-Feb-23 11:31N 60°33' E 004°53'0 0.0
2017-Feb-23 10:33N 60°33' E 004°53'0 0.0
2017-Feb-23 09:33N 60°33' E 004°53'0 0.0
2017-Feb-23 08:33N 60°33' E 004°53'0 0.0
2017-Feb-23 07:33N 60°33' E 004°53'0 0.0
2017-Feb-23 06:34N 60°33' E 004°53'2 1.5
2017-Feb-23 05:33N 60°33' E 004°56'10 9.8
2017-Feb-23 04:32N 60°42' E 004°49'9 9.3
2017-Feb-23 03:33N 60°51' E 004°44'119 7.8
2017-Feb-22 12:20N 62°40' E 006°24'1012.7
2017-Feb-22 11:33N 62°48' E 006°36'1312.3
2017-Feb-22 10:29N 62°59' E 006°52'1111.6
2017-Feb-22 09:33N 63°03' E 007°14'1111.5
2017-Feb-22 08:33N 63°08' E 007°37'1211.9
2017-Feb-22 07:33N 63°14' E 007°59'3612.0
2017-Feb-22 04:33N 63°31' E 009°10'1111.4
2017-Feb-22 03:33N 63°39' E 009°29'7211.3
2017-Feb-21 21:14N 64°41' E 010°49'812.1
2017-Feb-21 20:33N 64°47' E 011°04'1111.5
2017-Feb-21 19:33N 64°55' E 011°22'1212.2
2017-Feb-21 18:34N 65°03' E 011°44'1312.5
2017-Feb-21 17:34N 65°15' E 011°55'8 0.5
2017-Feb-21 01:32N 65°22' E 012°04'1212.6
2017-Feb-21 00:33N 65°11' E 011°51'1212.0
2017-Feb-20 23:33N 65°00' E 011°37'1212.4
2017-Feb-20 22:34N 64°52' E 011°16'8311.8
2017-Feb-20 15:33N 63°42' E 009°31'1212.1
2017-Feb-20 14:33N 63°32' E 009°16'2812.8
2017-Feb-20 12:24N 63°20' E 008°20'1112.7
2017-Feb-20 11:33N 63°14' E 008°00'1111.4
2017-Feb-20 10:33N 63°07' E 007°41'3 2.9
2017-Feb-20 09:33N 63°06' E 007°48'0 0.0
2017-Feb-20 08:30N 63°06' E 007°48'8 8.1
2017-Feb-20 07:33N 63°06' E 007°31'2512.1
2017-Feb-20 05:26N 62°53' E 006°43'149 8.6
2017-Feb-19 12:07N 60°33' E 004°53'0 0.0
2017-Feb-19 11:31N 60°33' E 004°53'0 0.0
2017-Feb-19 10:33N 60°33' E 004°53'0 0.0
2017-Feb-19 09:33N 60°33' E 004°53'0 0.0
2017-Feb-19 08:29N 60°33' E 004°53'0 0.0
2017-Feb-19 07:32N 60°33' E 004°53'5 4.7
2017-Feb-19 06:33N 60°29' E 004°59'9 9.4
2017-Feb-19 05:33N 60°22' E 005°10'9 9.3
2017-Feb-19 04:33N 60°13' E 005°11'1010.1
2017-Feb-19 03:33N 60°03' E 005°20'1010.2
2017-Feb-19 02:33N 59°55' E 005°31'1010.0
2017-Feb-19 01:33N 59°45' E 005°31'1110.7
2017-Feb-19 00:32N 59°36' E 005°17'1010.1
2017-Feb-18 23:33N 59°27' E 005°14'1111.0
2017-Feb-18 22:33N 59°16' E 005°20'1211.7
2017-Feb-18 21:33N 59°04' E 005°21'1111.3
2017-Feb-18 20:33N 58°53' E 005°23'1111.2
2017-Feb-18 19:33N 58°42' E 005°27'1110.9
2017-Feb-18 18:33N 58°32' E 005°36'1010.2
2017-Feb-18 17:33N 58°25' E 005°49'10 9.9
2017-Feb-18 16:33N 58°18' E 006°03'1110.7
2017-Feb-18 15:33N 58°11' E 006°18'1010.5
2017-Feb-18 14:33N 58°04' E 006°33'9 9.4
2017-Feb-18 13:33N 58°03' E 006°51'3 2.7
2017-Feb-18 12:33N 58°05' E 006°47'0 0.0
2017-Feb-18 11:32N 58°05' E 006°47'0 0.0
2017-Feb-18 10:32N 58°05' E 006°47'0 0.0
2017-Feb-18 09:31N 58°05' E 006°47'0 0.0
2017-Feb-18 08:31N 58°05' E 006°47'0 0.0
2017-Feb-18 07:34N 58°05' E 006°47'0 0.0
2017-Feb-18 06:33N 58°05' E 006°47'0 0.0
2017-Feb-18 05:33N 58°05' E 006°47'4 4.2
2017-Feb-18 04:33N 58°01' E 006°43'10 9.8
2017-Feb-18 03:33N 58°06' E 006°27'1111.2
2017-Feb-18 02:33N 58°14' E 006°11'1111.4
2017-Feb-18 01:33N 58°22' E 005°55'1211.5
2017-Feb-18 00:33N 58°29' E 005°39'1211.7
2017-Feb-17 23:33N 58°40' E 005°29'1212.3
2017-Feb-17 22:33N 58°51' E 005°21'1212.4
2017-Feb-17 21:33N 59°04' E 005°19'1312.7
2017-Feb-17 20:32N 59°17' E 005°20'1010.3
2017-Feb-17 19:33N 59°26' E 005°14'1212.4
2017-Feb-17 18:33N 59°38' E 005°18'1212.5
2017-Feb-17 17:33N 59°48' E 005°33'1212.0
2017-Feb-17 16:33N 59°59' E 005°21'1212.6
2017-Feb-17 15:33N 60°11' E 005°13'1211.5
2017-Feb-17 14:33N 60°22' E 005°10'1211.8
2017-Feb-17 13:33N 60°32' E 004°56'2 2.0
2017-Feb-17 12:32N 60°33' E 004°53'0 0.0
2017-Feb-17 11:32N 60°33' E 004°53'138 5.5
2017-Feb-16 10:33N 62°43' E 006°30'1312.8
2017-Feb-16 09:30N 62°55' E 006°46'1111.4
2017-Feb-16 08:33N 63°01' E 007°05'1212.2
2017-Feb-16 07:33N 63°06' E 007°30'1212.4
2017-Feb-16 06:33N 63°13' E 007°53'3712.5
2017-Feb-16 03:33N 63°30' E 009°06'1212.0
2017-Feb-16 02:33N 63°37' E 009°28'8411.4
2017-Feb-15 19:12N 64°49' E 011°08'812.4
2017-Feb-15 18:33N 64°54' E 011°22'32 1.9
2017-Feb-15 01:09N 65°22' E 012°02'711.6
2017-Feb-15 00:33N 65°16' E 011°56'  
Track history (hours):
 
Tides and Currents Weather Stations Pressure Air Temp Water Temp Dewpoint Dewpoint Depression Visibility Wind Speed Wind Dir Waves Ship Positions

Pioneer Knutsen

Last reported at 2017-Feb-25 00:33 UTC. Time now 2017-Feb-25 00:41 UTC.
Position N 64°38' E 010°43'.

Length 70 m; draft 3.6 m.

Type: Ship. MMSI: 259393000.

Date/timePositionNaut miles runAvg speedWind from/ knotsBaromVisibWave heightAir tempDewpointWater temp
2017-Feb-25 00:33N 64°38' E 010°43'1211.6
2017-Feb-24 23:33N 64°28' E 010°26'1010.1
2017-Feb-24 22:33N 64°18' E 010°23'1111.4
2017-Feb-24 21:33N 64°09' E 010°07'1111.3
2017-Feb-24 20:33N 64°02' E 009°47'9 9.3
2017-Feb-24 19:32N 63°53' E 009°44'4 4.5
2017-Feb-24 18:33N 63°49' E 009°38'0 0.0
2017-Feb-24 17:33N 63°49' E 009°38'0 0.0
2017-Feb-24 16:32N 63°49' E 009°38'0 0.0
2017-Feb-24 15:33N 63°49' E 009°38'10 9.7
2017-Feb-24 14:33N 63°40' E 009°29'10 9.8
2017-Feb-24 13:33N 63°33' E 009°16'1211.6
2017-Feb-24 12:33N 63°27' E 008°52'1212.0
2017-Feb-24 11:33N 63°23' E 008°28'1211.6
2017-Feb-24 10:33N 63°16' E 008°07'1211.6
2017-Feb-24 09:33N 63°10' E 007°45'1211.5
2017-Feb-24 08:33N 63°04' E 007°23'1110.5
2017-Feb-24 07:33N 63°00' E 007°01'9 9.2
2017-Feb-24 06:33N 62°54' E 006°46'1010.3
2017-Feb-24 05:33N 62°46' E 006°33'1212.0
2017-Feb-24 04:33N 62°36' E 006°17'1211.5
2017-Feb-24 03:33N 62°27' E 006°03'1010.0
2017-Feb-24 02:32N 62°17' E 005°59'1211.9
2017-Feb-24 01:33N 62°11' E 005°38'1010.1
2017-Feb-24 00:33N 62°13' E 005°16'7 7.3
2017-Feb-23 23:33N 62°09' E 005°02'1111.4
2017-Feb-23 22:33N 61°58' E 005°09'9 9.3
2017-Feb-23 21:33N 61°50' E 005°15'1211.4
2017-Feb-23 20:33N 61°42' E 004°58'1211.5
2017-Feb-23 19:33N 61°30' E 004°60'1111.5
2017-Feb-23 18:33N 61°19' E 005°04'9 8.6
2017-Feb-23 17:34N 61°11' E 005°01'1110.9
2017-Feb-23 16:33N 61°01' E 004°51'1111.4
2017-Feb-23 15:33N 60°50' E 004°45'1212.2
2017-Feb-23 14:33N 60°38' E 004°53'5 5.1
2017-Feb-23 13:31N 60°33' E 004°53'0 0.0
2017-Feb-23 12:28N 60°33' E 004°53'0 0.0
2017-Feb-23 11:31N 60°33' E 004°53'0 0.0
2017-Feb-23 10:33N 60°33' E 004°53'0 0.0
2017-Feb-23 09:33N 60°33' E 004°53'0 0.0
2017-Feb-23 08:33N 60°33' E 004°53'0 0.0
2017-Feb-23 07:33N 60°33' E 004°53'0 0.0
2017-Feb-23 06:34N 60°33' E 004°53'2 1.5
2017-Feb-23 05:33N 60°33' E 004°56'10 9.8
2017-Feb-23 04:32N 60°42' E 004°49'9 9.3
2017-Feb-23 03:33N 60°51' E 004°44'119 7.8
2017-Feb-22 12:20N 62°40' E 006°24'1012.7
2017-Feb-22 11:33N 62°48' E 006°36'1312.3
2017-Feb-22 10:29N 62°59' E 006°52'1111.6
2017-Feb-22 09:33N 63°03' E 007°14'1111.5
2017-Feb-22 08:33N 63°08' E 007°37'1211.9
2017-Feb-22 07:33N 63°14' E 007°59'3612.0
2017-Feb-22 04:33N 63°31' E 009°10'1111.4
2017-Feb-22 03:33N 63°39' E 009°29'7211.3
2017-Feb-21 21:14N 64°41' E 010°49'812.1
2017-Feb-21 20:33N 64°47' E 011°04'1111.5
2017-Feb-21 19:33N 64°55' E 011°22'1212.2
2017-Feb-21 18:34N 65°03' E 011°44'1312.5
2017-Feb-21 17:34N 65°15' E 011°55'8 0.5
2017-Feb-21 01:32N 65°22' E 012°04'1212.6
2017-Feb-21 00:33N 65°11' E 011°51'1212.0
2017-Feb-20 23:33N 65°00' E 011°37'1212.4
2017-Feb-20 22:34N 64°52' E 011°16'8311.8
2017-Feb-20 15:33N 63°42' E 009°31'1212.1
2017-Feb-20 14:33N 63°32' E 009°16'2812.8
2017-Feb-20 12:24N 63°20' E 008°20'1112.7
2017-Feb-20 11:33N 63°14' E 008°00'1111.4
2017-Feb-20 10:33N 63°07' E 007°41'3 2.9
2017-Feb-20 09:33N 63°06' E 007°48'0 0.0
2017-Feb-20 08:30N 63°06' E 007°48'8 8.1
2017-Feb-20 07:33N 63°06' E 007°31'2512.1
2017-Feb-20 05:26N 62°53' E 006°43'149 8.6
2017-Feb-19 12:07N 60°33' E 004°53'0 0.0
2017-Feb-19 11:31N 60°33' E 004°53'0 0.0
2017-Feb-19 10:33N 60°33' E 004°53'0 0.0
2017-Feb-19 09:33N 60°33' E 004°53'0 0.0
2017-Feb-19 08:29N 60°33' E 004°53'0 0.0
2017-Feb-19 07:32N 60°33' E 004°53'5 4.7
2017-Feb-19 06:33N 60°29' E 004°59'9 9.4
2017-Feb-19 05:33N 60°22' E 005°10'9 9.3
2017-Feb-19 04:33N 60°13' E 005°11'1010.1
2017-Feb-19 03:33N 60°03' E 005°20'1010.2
2017-Feb-19 02:33N 59°55' E 005°31'1010.0
2017-Feb-19 01:33N 59°45' E 005°31'1110.7
2017-Feb-19 00:32N 59°36' E 005°17'1010.1
2017-Feb-18 23:33N 59°27' E 005°14'1111.0
2017-Feb-18 22:33N 59°16' E 005°20'1211.7
2017-Feb-18 21:33N 59°04' E 005°21'1111.3
2017-Feb-18 20:33N 58°53' E 005°23'1111.2
2017-Feb-18 19:33N 58°42' E 005°27'1110.9
2017-Feb-18 18:33N 58°32' E 005°36'1010.2
2017-Feb-18 17:33N 58°25' E 005°49'10 9.9
2017-Feb-18 16:33N 58°18' E 006°03'1110.7
2017-Feb-18 15:33N 58°11' E 006°18'1010.5
2017-Feb-18 14:33N 58°04' E 006°33'9 9.4
2017-Feb-18 13:33N 58°03' E 006°51'3 2.7
2017-Feb-18 12:33N 58°05' E 006°47'0 0.0
2017-Feb-18 11:32N 58°05' E 006°47'0 0.0
2017-Feb-18 10:32N 58°05' E 006°47'0 0.0
2017-Feb-18 09:31N 58°05' E 006°47'0 0.0
2017-Feb-18 08:31N 58°05' E 006°47'0 0.0
2017-Feb-18 07:34N 58°05' E 006°47'0 0.0
2017-Feb-18 06:33N 58°05' E 006°47'0 0.0
2017-Feb-18 05:33N 58°05' E 006°47'4 4.2
2017-Feb-18 04:33N 58°01' E 006°43'10 9.8
2017-Feb-18 03:33N 58°06' E 006°27'1111.2
2017-Feb-18 02:33N 58°14' E 006°11'1111.4
2017-Feb-18 01:33N 58°22' E 005°55'1211.5
2017-Feb-18 00:33N 58°29' E 005°39'1211.7
2017-Feb-17 23:33N 58°40' E 005°29'1212.3
2017-Feb-17 22:33N 58°51' E 005°21'1212.4
2017-Feb-17 21:33N 59°04' E 005°19'1312.7
2017-Feb-17 20:32N 59°17' E 005°20'1010.3
2017-Feb-17 19:33N 59°26' E 005°14'1212.4
2017-Feb-17 18:33N 59°38' E 005°18'1212.5
2017-Feb-17 17:33N 59°48' E 005°33'1212.0
2017-Feb-17 16:33N 59°59' E 005°21'1212.6
2017-Feb-17 15:33N 60°11' E 005°13'1211.5
2017-Feb-17 14:33N 60°22' E 005°10'1211.8
2017-Feb-17 13:33N 60°32' E 004°56'2 2.0
2017-Feb-17 12:32N 60°33' E 004°53'0 0.0
2017-Feb-17 11:32N 60°33' E 004°53'138 5.5
2017-Feb-16 10:33N 62°43' E 006°30'1312.8
2017-Feb-16 09:30N 62°55' E 006°46'1111.4
2017-Feb-16 08:33N 63°01' E 007°05'1212.2
2017-Feb-16 07:33N 63°06' E 007°30'1212.4
2017-Feb-16 06:33N 63°13' E 007°53'3712.5
2017-Feb-16 03:33N 63°30' E 009°06'1212.0
2017-Feb-16 02:33N 63°37' E 009°28'8411.4
2017-Feb-15 19:12N 64°49' E 011°08'812.4
2017-Feb-15 18:33N 64°54' E 011°22'32 1.9
2017-Feb-15 01:09N 65°22' E 012°02'711.6
2017-Feb-15 00:33N 65°16' E 011°56'  

Dump ship's entire track history